createdAt,value
2023-05-06T00:01:20.420Z,36.50
2023-05-06T00:03:47.961Z,36.30
2023-05-06T00:06:18.529Z,36.30
2023-05-06T00:08:46.153Z,36.10
2023-05-06T00:11:13.848Z,35.50
2023-05-06T00:13:41.477Z,36.00
2023-05-06T00:16:08.744Z,36.10
2023-05-06T00:18:35.850Z,36.40
2023-05-06T00:21:02.738Z,36.50
2023-05-06T00:23:29.892Z,36.40
2023-05-06T00:25:56.933Z,36.10
2023-05-06T00:28:23.848Z,36.00
2023-05-06T00:30:51.294Z,36.50
2023-05-06T00:33:18.169Z,36.50
2023-05-06T00:35:45.191Z,36.50
2023-05-06T00:38:13.968Z,36.40
2023-05-06T00:40:41.630Z,36.50
2023-05-06T00:43:08.912Z,36.70
2023-05-06T00:45:36.118Z,36.50
2023-05-06T00:48:04.758Z,36.40
2023-05-06T00:50:34.520Z,36.00
2023-05-06T00:53:04.145Z,36.40
2023-05-06T00:55:31.634Z,36.80
2023-05-06T00:57:59.207Z,36.10
2023-05-06T01:00:26.398Z,36.00
2023-05-06T01:02:53.644Z,35.20
2023-05-06T01:05:23.214Z,36.60
2023-05-06T01:08:17.684Z,36.40
2023-05-06T01:10:55.149Z,35.90
2023-05-06T01:13:35.718Z,35.70
2023-05-06T01:16:04.894Z,35.70
2023-05-06T01:18:33.169Z,35.70
2023-05-06T01:21:01.985Z,35.50
2023-05-06T01:23:29.014Z,35.30
2023-05-06T01:25:56.061Z,35.40
2023-05-06T01:28:22.976Z,35.00
2023-05-06T01:30:59.678Z,34.50
2023-05-06T01:33:29.793Z,33.40
2023-05-06T01:36:15.742Z,34.20
2023-05-06T01:39:08.025Z,34.60
2023-05-06T01:41:37.349Z,34.90
2023-05-06T01:44:05.927Z,36.00
2023-05-06T01:46:33.374Z,36.00
2023-05-06T01:49:04.577Z,35.40
2023-05-06T01:51:35.739Z,34.70
2023-05-06T01:54:03.429Z,34.50
2023-05-06T01:56:30.353Z,34.80
2023-05-06T01:58:59.513Z,34.80
2023-05-06T02:01:26.849Z,34.70
2023-05-06T02:03:54.069Z,34.30
2023-05-06T02:06:21.080Z,33.90
2023-05-06T02:08:48.535Z,33.80
2023-05-06T02:11:15.606Z,33.10
2023-05-06T02:13:43.020Z,32.50
2023-05-06T02:16:10.259Z,32.00
2023-05-06T02:18:37.546Z,32.40
2023-05-06T02:21:04.536Z,32.80
2023-05-06T02:23:31.538Z,33.20
2023-05-06T02:25:59.006Z,33.50
2023-05-06T02:28:26.064Z,34.10
2023-05-06T02:30:57.200Z,34.40
2023-05-06T02:33:24.478Z,34.20
2023-05-06T02:35:51.895Z,34.30
2023-05-06T02:38:19.840Z,33.90
2023-05-06T02:40:46.781Z,34.30
2023-05-06T02:43:13.672Z,35.20
2023-05-06T02:45:40.870Z,35.70
2023-05-06T02:48:07.732Z,35.80
2023-05-06T02:50:36.234Z,35.80
2023-05-06T02:53:03.282Z,35.90
2023-05-06T02:55:30.620Z,36.00
2023-05-06T02:57:57.452Z,35.80
2023-05-06T03:00:24.353Z,36.00
2023-05-06T03:02:51.334Z,35.30
2023-05-06T03:05:18.419Z,36.60
2023-05-06T03:07:45.570Z,36.70
2023-05-06T03:10:12.578Z,36.90
2023-05-06T03:12:39.588Z,37.10
2023-05-06T03:15:07.307Z,37.30
2023-05-06T03:17:34.353Z,37.40
2023-05-06T03:20:01.491Z,37.50
2023-05-06T03:22:28.452Z,37.60
2023-05-06T03:24:55.343Z,38.80
2023-05-06T03:27:22.241Z,38.10
2023-05-06T03:29:49.106Z,38.60
2023-05-06T03:32:15.987Z,38.80
2023-05-06T03:34:42.881Z,38.80
2023-05-06T03:37:09.990Z,39.70
2023-05-06T03:39:36.879Z,40.30
2023-05-06T03:42:04.001Z,40.40
2023-05-06T03:44:30.947Z,40.30
2023-05-06T03:46:57.918Z,40.60
2023-05-06T03:49:24.868Z,41.30
2023-05-06T03:51:53.392Z,40.70
2023-05-06T03:54:20.375Z,40.10
2023-05-06T03:56:47.295Z,40.10
2023-05-06T03:59:14.228Z,41.30
2023-05-06T04:01:42.144Z,41.50
2023-05-06T04:04:09.230Z,42.10
2023-05-06T04:06:36.622Z,42.10
2023-05-06T04:09:06.366Z,42.30
2023-05-06T04:11:33.329Z,42.30
2023-05-06T04:14:00.266Z,42.40
2023-05-06T04:16:27.386Z,42.40
2023-05-06T04:18:55.439Z,42.20
2023-05-06T04:21:23.373Z,42.50
2023-05-06T04:23:50.430Z,41.90
2023-05-06T04:26:17.407Z,41.70
2023-05-06T04:28:45.620Z,42.00
2023-05-06T04:31:14.590Z,41.90
2023-05-06T04:33:42.027Z,42.30
2023-05-06T04:36:09.389Z,42.00
2023-05-06T04:38:37.551Z,42.20
2023-05-06T04:41:05.653Z,42.00
2023-05-06T04:43:32.931Z,42.10
2023-05-06T04:46:00.149Z,42.80
2023-05-06T04:48:27.384Z,42.60
2023-05-06T04:50:54.403Z,42.40
2023-05-06T04:53:21.509Z,42.40
2023-05-06T04:55:48.534Z,42.50
2023-05-06T04:58:15.705Z,42.70
2023-05-06T05:00:42.780Z,42.60
2023-05-06T05:03:09.825Z,42.40
2023-05-06T05:05:36.947Z,42.50
2023-05-06T05:08:03.992Z,42.80
2023-05-06T05:10:31.074Z,43.10
2023-05-06T05:12:58.400Z,41.40
2023-05-06T05:15:25.655Z,43.50
2023-05-06T05:17:52.850Z,43.80
2023-05-06T05:20:19.986Z,44.20
2023-05-06T05:22:47.091Z,44.40
2023-05-06T05:25:14.443Z,44.40
2023-05-06T05:27:43.088Z,44.60
2023-05-06T05:30:10.463Z,44.80
2023-05-06T05:32:37.719Z,44.70
2023-05-06T05:35:05.305Z,43.50
2023-05-06T05:37:32.702Z,43.10
2023-05-06T05:39:59.585Z,42.70
2023-05-06T05:42:26.794Z,42.90
2023-05-06T05:44:53.764Z,43.30
2023-05-06T05:47:20.811Z,44.00
2023-05-06T05:49:51.125Z,44.10
2023-05-06T05:52:18.242Z,43.90
2023-05-06T05:54:45.138Z,44.00
2023-05-06T05:57:12.216Z,44.20
2023-05-06T05:59:39.678Z,44.30
2023-05-06T06:02:07.024Z,42.90
2023-05-06T06:04:34.287Z,42.30
2023-05-06T06:07:04.192Z,43.20
2023-05-06T06:09:31.246Z,43.80
2023-05-06T06:11:58.212Z,44.30
2023-05-06T06:14:25.304Z,44.70
2023-05-06T06:16:52.413Z,44.70
2023-05-06T06:19:19.293Z,44.90
2023-05-06T06:21:46.217Z,44.90
2023-05-06T06:24:13.537Z,44.60
2023-05-06T06:26:40.548Z,44.60
2023-05-06T06:29:07.604Z,44.80
2023-05-06T06:31:34.970Z,44.60
2023-05-06T06:34:06.336Z,44.20
2023-05-06T06:36:33.347Z,44.00
2023-05-06T06:39:00.307Z,43.60
2023-05-06T06:41:28.082Z,41.00
2023-05-06T06:43:55.001Z,41.80
2023-05-06T06:46:22.124Z,44.20
2023-05-06T06:48:49.248Z,45.10
2023-05-06T06:51:16.235Z,44.80
2023-05-06T06:53:43.180Z,43.90
2023-05-06T06:56:13.376Z,44.00
2023-05-06T06:58:40.545Z,44.50
2023-05-06T07:01:07.897Z,42.80
2023-05-06T07:03:34.788Z,43.00
2023-05-06T07:06:01.770Z,44.20
2023-05-06T07:08:28.844Z,44.60
2023-05-06T07:10:56.694Z,44.50
2023-05-06T07:13:23.762Z,43.70
2023-05-06T07:15:50.843Z,43.40
2023-05-06T07:18:17.675Z,43.60
2023-05-06T07:20:44.761Z,44.40
2023-05-06T07:23:11.692Z,44.20
2023-05-06T07:25:38.626Z,43.00
2023-05-06T07:28:05.851Z,42.10
2023-05-06T07:30:33.581Z,42.50
2023-05-06T07:33:01.101Z,42.60
2023-05-06T07:35:28.403Z,42.50
2023-05-06T07:37:55.416Z,42.80
2023-05-06T07:40:22.706Z,40.20
2023-05-06T07:42:49.687Z,39.80
2023-05-06T07:45:16.972Z,37.90
2023-05-06T07:47:43.945Z,36.40
2023-05-06T07:50:11.122Z,35.10
2023-05-06T07:52:38.264Z,33.50
2023-05-06T07:55:05.858Z,32.60
2023-05-06T07:57:32.905Z,33.90
2023-05-06T08:00:00.108Z,33.10
2023-05-06T08:02:27.522Z,30.20
2023-05-06T08:04:54.599Z,29.80
2023-05-06T08:07:21.932Z,30.50
2023-05-06T08:09:48.845Z,30.90
2023-05-06T08:12:16.143Z,30.40
2023-05-06T08:14:43.330Z,29.80
2023-05-06T08:17:10.536Z,29.10
2023-05-06T08:19:37.480Z,28.80
2023-05-06T08:22:04.387Z,29.10
2023-05-06T08:24:31.447Z,27.80
2023-05-06T08:26:58.378Z,29.90
2023-05-06T08:29:25.443Z,29.10
2023-05-06T08:31:52.415Z,28.90
2023-05-06T08:34:21.274Z,28.90
2023-05-06T08:36:52.019Z,28.50
2023-05-06T08:39:19.058Z,26.30
2023-05-06T08:41:52.284Z,25.50
2023-05-06T08:44:21.076Z,24.50
2023-05-06T08:46:48.603Z,24.50
2023-05-06T08:49:16.422Z,22.10
2023-05-06T08:51:44.684Z,19.80
2023-05-06T08:54:12.697Z,15.60
2023-05-06T08:56:43.472Z,14.20
2023-05-06T08:59:11.717Z,14.40
2023-05-06T09:01:38.905Z,14.40
2023-05-06T09:04:07.561Z,14.30
2023-05-06T09:06:34.539Z,14.80
2023-05-06T09:09:01.414Z,15.60
2023-05-06T09:11:29.712Z,15.80
2023-05-06T09:14:14.128Z,14.60
2023-05-06T09:16:44.135Z,12.00
2023-05-06T09:19:11.394Z,11.30
2023-05-06T09:21:46.661Z,9.30
2023-05-06T09:24:15.653Z,9.40
2023-05-06T09:26:44.059Z,10.80
2023-05-06T09:29:11.372Z,11.70
2023-05-06T09:31:43.359Z,10.90
2023-05-06T09:34:10.936Z,9.80
2023-05-06T09:36:38.179Z,10.40
2023-05-06T09:39:05.893Z,9.30
2023-05-06T09:41:33.372Z,11.10
2023-05-06T09:44:00.502Z,9.70
2023-05-06T09:46:30.623Z,9.80
2023-05-06T09:48:58.331Z,11.50
2023-05-06T09:51:27.994Z,9.80
2023-05-06T09:53:57.364Z,9.10
2023-05-06T09:56:26.097Z,9.30
2023-05-06T09:58:55.792Z,8.10
2023-05-06T10:01:35.393Z,6.30
2023-05-06T10:04:08.129Z,6.50
2023-05-06T10:06:36.902Z,4.30
2023-05-06T10:09:06.250Z,3.10
2023-05-06T10:11:33.436Z,3.00
2023-05-06T10:14:01.414Z,2.90
2023-05-06T10:16:29.298Z,2.90
2023-05-06T10:18:57.425Z,2.80
2023-05-06T10:21:28.004Z,3.60
2023-05-06T10:24:05.070Z,3.60
2023-05-06T10:26:33.673Z,2.80
2023-05-06T10:29:04.756Z,2.80
2023-05-06T10:31:34.220Z,2.80
2023-05-06T10:34:04.905Z,1.10
2023-05-06T10:36:34.007Z,1.00
2023-05-06T10:39:03.409Z,1.00
2023-05-06T10:41:31.247Z,1.00
2023-05-06T10:43:59.411Z,1.00
2023-05-06T10:46:29.970Z,1.00
2023-05-06T10:49:11.224Z,1.00
2023-05-06T10:51:39.786Z,2.10
2023-05-06T10:54:18.744Z,1.40
2023-05-06T10:56:48.842Z,1.00
2023-05-06T10:59:26.649Z,1.00
2023-05-06T11:02:08.945Z,1.00
2023-05-06T11:04:37.626Z,1.00
2023-05-06T11:07:11.854Z,1.00
2023-05-06T11:10:02.539Z,1.00
2023-05-06T11:12:49.784Z,1.00
2023-05-06T11:15:43.699Z,1.00
2023-05-06T11:18:29.502Z,1.00
2023-05-06T11:21:03.146Z,1.00
2023-05-06T11:23:43.414Z,1.00
2023-05-06T11:26:11.464Z,1.00
2023-05-06T11:28:40.036Z,1.00
2023-05-06T11:31:08.404Z,1.00
2023-05-06T11:33:37.163Z,1.00
2023-05-06T11:36:05.317Z,1.00
2023-05-06T11:38:47.048Z,1.00
2023-05-06T11:41:15.566Z,1.00
2023-05-06T11:43:50.676Z,1.00
2023-05-06T11:46:24.236Z,1.00
2023-05-06T11:48:51.455Z,1.00
2023-05-06T11:51:25.142Z,1.00
2023-05-06T11:54:25.075Z,1.00
2023-05-06T11:56:53.802Z,1.00
2023-05-06T11:59:32.635Z,1.00
2023-05-06T12:02:02.355Z,1.00
2023-05-06T12:04:41.349Z,1.00
2023-05-06T12:07:10.803Z,1.00
2023-05-06T12:09:41.867Z,1.00
2023-05-06T12:12:10.453Z,1.00
2023-05-06T12:14:38.394Z,1.00
2023-05-06T12:17:05.799Z,1.00
2023-05-06T12:19:33.451Z,1.00
2023-05-06T12:22:24.800Z,1.00
2023-05-06T12:24:51.838Z,1.00
2023-05-06T12:27:48.286Z,1.00
2023-05-06T12:30:15.575Z,1.00
2023-05-06T12:32:59.285Z,1.00
2023-05-06T12:35:31.080Z,1.00
2023-05-06T12:38:07.871Z,1.00
2023-05-06T12:40:34.842Z,1.00
2023-05-06T12:43:02.212Z,1.00
2023-05-06T12:45:29.370Z,1.00
2023-05-06T12:47:58.176Z,1.00
2023-05-06T12:50:42.689Z,1.00
2023-05-06T12:53:13.327Z,1.00
2023-05-06T12:55:45.292Z,1.00
2023-05-06T12:58:16.478Z,1.00
2023-05-06T13:00:43.546Z,1.00
2023-05-06T13:03:11.631Z,1.00
2023-05-06T13:05:39.261Z,1.00
2023-05-06T13:08:06.574Z,1.00
2023-05-06T13:10:33.597Z,1.00
2023-05-06T13:13:00.808Z,1.00
2023-05-06T13:15:27.732Z,1.00
2023-05-06T13:17:54.859Z,1.00
2023-05-06T13:20:22.282Z,1.00
2023-05-06T13:22:54.829Z,1.00
2023-05-06T13:25:22.596Z,1.00
2023-05-06T13:27:49.767Z,1.00
2023-05-06T13:30:17.161Z,1.00
2023-05-06T13:32:46.727Z,1.00
2023-05-06T13:35:17.013Z,1.00
2023-05-06T13:37:43.968Z,1.00
2023-05-06T13:40:11.889Z,1.00
2023-05-06T13:42:39.065Z,1.00
2023-05-06T13:45:06.801Z,1.00
2023-05-06T13:47:33.684Z,1.00
2023-05-06T13:50:00.937Z,1.00
2023-05-06T13:52:28.036Z,1.00
2023-05-06T13:54:55.351Z,1.00
2023-05-06T13:57:24.348Z,1.00
2023-05-06T13:59:51.461Z,1.00
2023-05-06T14:02:18.516Z,1.00
2023-05-06T14:04:45.637Z,1.00
2023-05-06T14:07:12.505Z,1.00
2023-05-06T14:09:39.532Z,1.00
2023-05-06T14:12:06.532Z,1.00
2023-05-06T14:14:33.421Z,1.00
2023-05-06T14:17:00.351Z,1.00
2023-05-06T14:19:27.318Z,1.00
2023-05-06T14:21:55.764Z,1.00
2023-05-06T14:24:23.011Z,1.00
2023-05-06T14:26:49.989Z,1.00
2023-05-06T14:29:17.072Z,1.00
2023-05-06T14:31:45.281Z,1.00
2023-05-06T14:34:12.552Z,1.00
2023-05-06T14:36:39.682Z,1.00
2023-05-06T14:39:06.606Z,1.00
2023-05-06T14:41:33.678Z,1.00
2023-05-06T14:44:00.672Z,1.00
2023-05-06T14:46:29.572Z,1.00
2023-05-06T14:48:57.110Z,1.00
2023-05-06T14:51:24.168Z,1.00
2023-05-06T14:53:51.235Z,1.00
2023-05-06T14:56:18.465Z,1.00
2023-05-06T14:58:46.164Z,1.00
2023-05-06T15:01:13.891Z,1.00
2023-05-06T15:03:40.812Z,1.00
2023-05-06T15:06:07.976Z,1.00
2023-05-06T15:08:35.200Z,1.00
2023-05-06T15:11:04.328Z,1.00
2023-05-06T15:13:31.649Z,1.00
2023-05-06T15:15:58.767Z,1.00
2023-05-06T15:18:25.833Z,1.00
2023-05-06T15:20:54.998Z,1.00
2023-05-06T15:23:22.795Z,1.00
2023-05-06T15:25:49.965Z,1.00
2023-05-06T15:28:17.509Z,1.00
2023-05-06T15:30:44.917Z,1.00
2023-05-06T15:33:12.043Z,1.00
2023-05-06T15:35:39.303Z,1.00
2023-05-06T15:38:06.546Z,1.00
2023-05-06T15:40:35.277Z,1.00
2023-05-06T15:43:04.463Z,1.00
2023-05-06T15:45:31.460Z,1.00
2023-05-06T15:47:58.614Z,1.00
2023-05-06T15:50:33.517Z,1.00
2023-05-06T15:53:02.136Z,1.00
2023-05-06T15:55:29.952Z,1.00
2023-05-06T15:57:59.159Z,1.00
2023-05-06T16:00:28.058Z,1.00
2023-05-06T16:02:55.405Z,1.00
2023-05-06T16:05:22.898Z,1.00
2023-05-06T16:07:50.000Z,1.00
2023-05-06T16:10:17.223Z,1.00
2023-05-06T16:12:44.429Z,1.00
2023-05-06T16:15:11.900Z,1.00
2023-05-06T16:17:38.978Z,1.00
2023-05-06T16:20:09.112Z,1.00
2023-05-06T16:22:41.616Z,1.00
2023-05-06T16:25:08.966Z,1.00
2023-05-06T16:27:36.084Z,1.00
2023-05-06T16:30:03.661Z,1.00
2023-05-06T16:32:30.766Z,1.00
2023-05-06T16:34:59.368Z,1.00
2023-05-06T16:37:26.232Z,1.00
2023-05-06T16:39:53.267Z,1.00
2023-05-06T16:42:20.323Z,1.00
2023-05-06T16:44:47.256Z,1.00
2023-05-06T16:47:14.528Z,1.00
2023-05-06T16:49:41.639Z,1.00
2023-05-06T16:52:08.717Z,1.00
2023-05-06T16:54:35.611Z,1.00
2023-05-06T16:57:03.458Z,1.00
2023-05-06T16:59:30.520Z,1.00
2023-05-06T17:01:57.639Z,1.00
2023-05-06T17:04:27.627Z,1.00
2023-05-06T17:06:55.232Z,1.00
2023-05-06T17:09:22.774Z,1.00
2023-05-06T17:11:50.237Z,1.00
2023-05-06T17:14:17.307Z,1.00
2023-05-06T17:16:45.232Z,1.00
2023-05-06T17:19:12.389Z,1.00
2023-05-06T17:21:39.755Z,1.00
2023-05-06T17:24:06.881Z,1.00
2023-05-06T17:26:34.912Z,1.00
2023-05-06T17:29:02.076Z,1.00
2023-05-06T17:31:28.968Z,1.00
2023-05-06T17:33:56.520Z,1.00
2023-05-06T17:36:23.523Z,1.00
2023-05-06T17:39:05.843Z,1.00
2023-05-06T17:41:34.214Z,1.00
2023-05-06T17:44:01.664Z,1.00
2023-05-06T17:46:28.678Z,1.00
2023-05-06T17:48:55.608Z,1.00
2023-05-06T17:51:22.706Z,1.00
2023-05-06T17:53:50.101Z,1.00
2023-05-06T17:56:17.197Z,1.00
2023-05-06T17:58:44.078Z,1.00
2023-05-06T18:01:11.626Z,1.00
2023-05-06T18:03:39.613Z,1.00
2023-05-06T18:06:06.705Z,1.00
2023-05-06T18:08:33.625Z,1.00
2023-05-06T18:11:00.749Z,1.00
2023-05-06T18:13:27.784Z,1.00
2023-05-06T18:15:54.995Z,1.00
2023-05-06T18:18:21.985Z,1.00
2023-05-06T18:20:48.980Z,1.00
2023-05-06T18:23:15.892Z,1.00
2023-05-06T18:25:42.750Z,1.00
2023-05-06T18:28:09.666Z,1.00
2023-05-06T18:30:36.808Z,1.00
2023-05-06T18:33:03.807Z,1.00
2023-05-06T18:35:31.342Z,1.00
2023-05-06T18:37:58.294Z,1.00
2023-05-06T18:40:25.190Z,1.00
2023-05-06T18:42:53.245Z,1.00
2023-05-06T18:45:20.340Z,1.00
2023-05-06T18:47:47.351Z,1.00
2023-05-06T18:50:14.682Z,1.00
2023-05-06T18:52:41.767Z,1.00
2023-05-06T18:55:09.088Z,1.00
2023-05-06T18:57:36.434Z,1.00
2023-05-06T19:00:07.135Z,1.00
2023-05-06T19:02:34.377Z,1.00
2023-05-06T19:05:01.473Z,1.00
2023-05-06T19:07:28.611Z,1.00
2023-05-06T19:09:55.688Z,1.00
2023-05-06T19:12:23.342Z,1.00
2023-05-06T19:14:50.415Z,1.00
2023-05-06T19:17:17.533Z,1.00
2023-05-06T19:19:46.960Z,1.00
2023-05-06T19:22:14.431Z,1.00
2023-05-06T19:24:41.492Z,1.00
2023-05-06T19:27:08.435Z,1.00
2023-05-06T19:29:35.547Z,1.00
2023-05-06T19:32:02.567Z,1.00
2023-05-06T19:34:29.621Z,1.00
2023-05-06T19:36:57.340Z,1.00
2023-05-06T19:39:24.386Z,1.00
2023-05-06T19:41:53.748Z,1.00
2023-05-06T19:44:20.918Z,1.00
2023-05-06T19:46:52.165Z,1.00
2023-05-06T19:49:19.174Z,1.00
2023-05-06T19:51:46.476Z,1.10
2023-05-06T19:54:13.529Z,1.00
2023-05-06T19:56:40.716Z,1.00
2023-05-06T19:59:07.726Z,1.00
2023-05-06T20:01:34.621Z,2.10
2023-05-06T20:04:01.959Z,1.40
2023-05-06T20:06:31.186Z,1.30
2023-05-06T20:08:58.224Z,1.30
2023-05-06T20:11:25.815Z,2.30
2023-05-06T20:13:52.707Z,1.20
2023-05-06T20:16:19.655Z,1.30
2023-05-06T20:18:47.729Z,1.20
2023-05-06T20:21:17.781Z,1.20
2023-05-06T20:23:44.721Z,2.20
2023-05-06T20:26:11.757Z,3.00
2023-05-06T20:28:39.274Z,3.30
2023-05-06T20:31:06.866Z,3.60
2023-05-06T20:33:33.861Z,4.90
2023-05-06T20:36:00.790Z,4.00
2023-05-06T20:38:30.119Z,4.10
2023-05-06T20:40:58.987Z,4.30
2023-05-06T20:43:25.963Z,3.90
2023-05-06T20:45:52.914Z,3.60
2023-05-06T20:48:19.916Z,3.40
2023-05-06T20:50:46.838Z,3.60
2023-05-06T20:53:13.714Z,4.00
2023-05-06T20:55:40.827Z,4.30
2023-05-06T20:58:07.916Z,4.40
2023-05-06T21:00:34.864Z,4.70
2023-05-06T21:03:01.977Z,5.20
2023-05-06T21:05:28.995Z,7.40
2023-05-06T21:07:56.003Z,6.10
2023-05-06T21:10:23.009Z,6.10
2023-05-06T21:12:50.858Z,6.60
2023-05-06T21:15:17.937Z,6.50
2023-05-06T21:17:45.095Z,6.50
2023-05-06T21:20:12.765Z,6.90
2023-05-06T21:22:39.662Z,7.00
2023-05-06T21:25:07.481Z,7.10
2023-05-06T21:27:34.496Z,7.10
2023-05-06T21:30:01.348Z,7.20
2023-05-06T21:32:32.949Z,7.60
2023-05-06T21:35:02.434Z,7.50
2023-05-06T21:37:30.059Z,7.90
2023-05-06T21:39:57.126Z,8.40
2023-05-06T21:42:23.989Z,8.90
2023-05-06T21:44:50.836Z,9.30
2023-05-06T21:47:17.746Z,9.70
2023-05-06T21:49:44.729Z,9.70
2023-05-06T21:52:11.713Z,9.90
2023-05-06T21:54:38.836Z,9.90
2023-05-06T21:57:08.083Z,9.80
2023-05-06T21:59:38.169Z,9.90
2023-05-06T22:02:05.216Z,9.70
2023-05-06T22:04:32.229Z,10.00
2023-05-06T22:06:59.161Z,8.60
2023-05-06T22:09:26.083Z,10.00
2023-05-06T22:11:52.989Z,9.80
2023-05-06T22:14:22.005Z,9.90
2023-05-06T22:16:52.736Z,10.00
2023-05-06T22:19:20.330Z,10.20
2023-05-06T22:21:47.362Z,10.70
2023-05-06T22:24:14.180Z,11.20
2023-05-06T22:26:41.324Z,11.50
2023-05-06T22:29:08.303Z,11.70
2023-05-06T22:31:35.324Z,11.80
2023-05-06T22:34:04.647Z,11.70
2023-05-06T22:36:35.361Z,11.80
2023-05-06T22:39:02.624Z,12.00
2023-05-06T22:41:30.808Z,12.10
2023-05-06T22:43:59.056Z,12.20
2023-05-06T22:46:26.818Z,12.50
2023-05-06T22:48:53.825Z,12.60
2023-05-06T22:51:21.236Z,12.50
2023-05-06T22:53:48.329Z,13.70
2023-05-06T22:56:15.422Z,12.90
2023-05-06T22:58:42.322Z,13.10
2023-05-06T23:01:09.403Z,13.10
2023-05-06T23:03:36.432Z,13.20
2023-05-06T23:06:05.986Z,13.50
2023-05-06T23:08:33.020Z,13.70
2023-05-06T23:10:59.986Z,13.90
2023-05-06T23:13:27.149Z,14.30
2023-05-06T23:15:54.264Z,14.40
2023-05-06T23:18:21.166Z,14.70
2023-05-06T23:20:48.102Z,15.00
2023-05-06T23:23:15.431Z,15.20
2023-05-06T23:25:42.256Z,15.30
2023-05-06T23:28:09.136Z,15.20
2023-05-06T23:30:36.060Z,15.20
2023-05-06T23:33:03.854Z,15.40
2023-05-06T23:35:30.929Z,15.40
2023-05-06T23:37:57.890Z,15.40
2023-05-06T23:40:24.833Z,15.60
2023-05-06T23:42:51.819Z,15.60
2023-05-06T23:45:19.804Z,16.20
2023-05-06T23:47:46.759Z,16.40
2023-05-06T23:50:14.243Z,16.40
2023-05-06T23:52:41.527Z,16.50
2023-05-06T23:55:09.139Z,16.80
2023-05-06T23:57:36.474Z,16.90
